sensor_id;sensor_type;location;lat;lon;timestamp;P1;durP1;ratioP1;P2;durP2;ratioP2
39680;SDS011;26327;42.550;23.120;2023-07-13T00:02:16;7.00;;;4.15;;
39680;SDS011;26327;42.550;23.120;2023-07-13T00:04:41;7.15;;;3.97;;
39680;SDS011;26327;42.550;23.120;2023-07-13T00:07:07;7.28;;;4.07;;
39680;SDS011;26327;42.550;23.120;2023-07-13T00:09:33;5.68;;;3.72;;
39680;SDS011;26327;42.550;23.120;2023-07-13T00:11:59;6.50;;;4.25;;
39680;SDS011;26327;42.550;23.120;2023-07-13T00:14:26;6.97;;;4.03;;
39680;SDS011;26327;42.550;23.120;2023-07-13T00:16:52;6.88;;;4.70;;
39680;SDS011;26327;42.550;23.120;2023-07-13T00:19:18;9.55;;;4.57;;
39680;SDS011;26327;42.550;23.120;2023-07-13T00:25:05;7.35;;;4.35;;
39680;SDS011;26327;42.550;23.120;2023-07-13T00:30:53;6.82;;;4.00;;
39680;SDS011;26327;42.550;23.120;2023-07-13T00:33:19;6.40;;;4.15;;
39680;SDS011;26327;42.550;23.120;2023-07-13T00:35:44;5.95;;;4.38;;
39680;SDS011;26327;42.550;23.120;2023-07-13T00:38:10;6.90;;;4.38;;
39680;SDS011;26327;42.550;23.120;2023-07-13T00:40:35;6.35;;;4.25;;
39680;SDS011;26327;42.550;23.120;2023-07-13T00:43:01;9.80;;;4.45;;
39680;SDS011;26327;42.550;23.120;2023-07-13T00:47:52;9.13;;;4.40;;
39680;SDS011;26327;42.550;23.120;2023-07-13T00:50:18;6.13;;;4.15;;
39680;SDS011;26327;42.550;23.120;2023-07-13T00:52:46;6.15;;;4.03;;
39680;SDS011;26327;42.550;23.120;2023-07-13T00:55:16;7.55;;;4.57;;
39680;SDS011;26327;42.550;23.120;2023-07-13T00:57:43;6.90;;;4.47;;
39680;SDS011;26327;42.550;23.120;2023-07-13T01:00:09;7.55;;;4.18;;
39680;SDS011;26327;42.550;23.120;2023-07-13T01:02:35;7.85;;;4.75;;
39680;SDS011;26327;42.550;23.120;2023-07-13T01:05:13;7.95;;;4.43;;
39680;SDS011;26327;42.550;23.120;2023-07-13T01:07:40;6.43;;;4.60;;
39680;SDS011;26327;42.550;23.120;2023-07-13T01:10:07;8.00;;;4.68;;
39680;SDS011;26327;42.550;23.120;2023-07-13T01:12:33;8.98;;;4.68;;
39680;SDS011;26327;42.550;23.120;2023-07-13T01:14:59;6.25;;;4.15;;
39680;SDS011;26327;42.550;23.120;2023-07-13T01:17:26;8.23;;;5.05;;
39680;SDS011;26327;42.550;23.120;2023-07-13T01:19:53;6.57;;;4.47;;
39680;SDS011;26327;42.550;23.120;2023-07-13T01:22:19;11.43;;;4.38;;
39680;SDS011;26327;42.550;23.120;2023-07-13T01:24:50;8.55;;;4.50;;
39680;SDS011;26327;42.550;23.120;2023-07-13T01:27:17;9.32;;;4.95;;
39680;SDS011;26327;42.550;23.120;2023-07-13T01:29:46;9.52;;;4.40;;
39680;SDS011;26327;42.550;23.120;2023-07-13T01:32:14;7.47;;;4.90;;
39680;SDS011;26327;42.550;23.120;2023-07-13T01:34:49;7.13;;;4.30;;
39680;SDS011;26327;42.550;23.120;2023-07-13T01:37:16;6.57;;;4.88;;
39680;SDS011;26327;42.550;23.120;2023-07-13T01:39:42;6.80;;;4.75;;
39680;SDS011;26327;42.550;23.120;2023-07-13T01:42:07;7.53;;;4.55;;
39680;SDS011;26327;42.550;23.120;2023-07-13T01:44:32;9.05;;;4.55;;
39680;SDS011;26327;42.550;23.120;2023-07-13T01:46:58;9.60;;;5.03;;
39680;SDS011;26327;42.550;23.120;2023-07-13T01:49:24;8.15;;;4.68;;
39680;SDS011;26327;42.550;23.120;2023-07-13T01:51:49;7.55;;;4.90;;
39680;SDS011;26327;42.550;23.120;2023-07-13T01:54:15;6.63;;;4.50;;
39680;SDS011;26327;42.550;23.120;2023-07-13T01:56:40;6.03;;;4.80;;
39680;SDS011;26327;42.550;23.120;2023-07-13T01:59:07;9.20;;;4.47;;
39680;SDS011;26327;42.550;23.120;2023-07-13T02:01:33;7.13;;;4.70;;
39680;SDS011;26327;42.550;23.120;2023-07-13T02:03:59;8.60;;;4.60;;
39680;SDS011;26327;42.550;23.120;2023-07-13T02:06:24;6.10;;;4.70;;
39680;SDS011;26327;42.550;23.120;2023-07-13T02:08:49;6.70;;;4.47;;
39680;SDS011;26327;42.550;23.120;2023-07-13T02:11:15;8.85;;;4.30;;
39680;SDS011;26327;42.550;23.120;2023-07-13T02:13:40;8.25;;;4.90;;
39680;SDS011;26327;42.550;23.120;2023-07-13T02:16:06;7.72;;;5.30;;
39680;SDS011;26327;42.550;23.120;2023-07-13T02:18:31;8.30;;;4.88;;
39680;SDS011;26327;42.550;23.120;2023-07-13T02:20:57;9.38;;;4.90;;
39680;SDS011;26327;42.550;23.120;2023-07-13T02:23:22;6.75;;;4.78;;
39680;SDS011;26327;42.550;23.120;2023-07-13T02:25:48;5.53;;;4.40;;
39680;SDS011;26327;42.550;23.120;2023-07-13T02:28:14;6.38;;;4.43;;
39680;SDS011;26327;42.550;23.120;2023-07-13T02:30:39;6.85;;;4.50;;
39680;SDS011;26327;42.550;23.120;2023-07-13T02:33:05;11.02;;;4.38;;
39680;SDS011;26327;42.550;23.120;2023-07-13T02:35:30;9.13;;;5.10;;
39680;SDS011;26327;42.550;23.120;2023-07-13T02:37:56;7.15;;;5.13;;
39680;SDS011;26327;42.550;23.120;2023-07-13T02:40:22;7.97;;;4.88;;
39680;SDS011;26327;42.550;23.120;2023-07-13T02:42:48;11.77;;;5.30;;
39680;SDS011;26327;42.550;23.120;2023-07-13T02:45:13;6.47;;;4.60;;
39680;SDS011;26327;42.550;23.120;2023-07-13T02:47:40;6.28;;;4.65;;
39680;SDS011;26327;42.550;23.120;2023-07-13T02:50:06;7.25;;;4.75;;
39680;SDS011;26327;42.550;23.120;2023-07-13T02:52:32;6.70;;;4.80;;
39680;SDS011;26327;42.550;23.120;2023-07-13T02:54:57;8.07;;;5.32;;
39680;SDS011;26327;42.550;23.120;2023-07-13T02:57:23;7.13;;;5.22;;
39680;SDS011;26327;42.550;23.120;2023-07-13T02:59:48;9.70;;;5.18;;
39680;SDS011;26327;42.550;23.120;2023-07-13T03:02:14;7.72;;;5.38;;
39680;SDS011;26327;42.550;23.120;2023-07-13T03:04:40;8.98;;;5.55;;
39680;SDS011;26327;42.550;23.120;2023-07-13T03:07:06;8.75;;;5.53;;
39680;SDS011;26327;42.550;23.120;2023-07-13T03:09:32;9.43;;;5.30;;
39680;SDS011;26327;42.550;23.120;2023-07-13T03:11:58;9.90;;;5.65;;
39680;SDS011;26327;42.550;23.120;2023-07-13T03:14:24;7.07;;;5.10;;
39680;SDS011;26327;42.550;23.120;2023-07-13T03:16:50;8.40;;;5.70;;
39680;SDS011;26327;42.550;23.120;2023-07-13T03:19:16;7.07;;;5.20;;
39680;SDS011;26327;42.550;23.120;2023-07-13T03:21:42;7.90;;;5.43;;
39680;SDS011;26327;42.550;23.120;2023-07-13T03:24:08;8.52;;;5.65;;
39680;SDS011;26327;42.550;23.120;2023-07-13T03:26:33;10.93;;;5.50;;
39680;SDS011;26327;42.550;23.120;2023-07-13T03:28:59;10.23;;;6.18;;
39680;SDS011;26327;42.550;23.120;2023-07-13T03:31:25;12.80;;;5.38;;
39680;SDS011;26327;42.550;23.120;2023-07-13T03:33:53;10.70;;;5.53;;
39680;SDS011;26327;42.550;23.120;2023-07-13T03:36:20;8.90;;;5.50;;
39680;SDS011;26327;42.550;23.120;2023-07-13T03:38:49;11.38;;;5.43;;
39680;SDS011;26327;42.550;23.120;2023-07-13T03:41:16;9.13;;;5.57;;
39680;SDS011;26327;42.550;23.120;2023-07-13T03:43:42;13.80;;;5.85;;
39680;SDS011;26327;42.550;23.120;2023-07-13T03:46:08;11.07;;;5.55;;
39680;SDS011;26327;42.550;23.120;2023-07-13T03:48:33;8.90;;;5.15;;
39680;SDS011;26327;42.550;23.120;2023-07-13T03:50:59;8.43;;;5.13;;
39680;SDS011;26327;42.550;23.120;2023-07-13T03:53:25;8.77;;;5.35;;
39680;SDS011;26327;42.550;23.120;2023-07-13T03:55:50;9.40;;;5.80;;
39680;SDS011;26327;42.550;23.120;2023-07-13T03:58:35;10.40;;;5.53;;
39680;SDS011;26327;42.550;23.120;2023-07-13T04:01:03;10.35;;;5.75;;
39680;SDS011;26327;42.550;23.120;2023-07-13T04:03:30;8.57;;;5.75;;
39680;SDS011;26327;42.550;23.120;2023-07-13T04:05:58;10.10;;;5.85;;
39680;SDS011;26327;42.550;23.120;2023-07-13T04:08:34;11.98;;;5.70;;
39680;SDS011;26327;42.550;23.120;2023-07-13T04:11:01;9.13;;;5.50;;
39680;SDS011;26327;42.550;23.120;2023-07-13T04:13:28;8.82;;;5.78;;
39680;SDS011;26327;42.550;23.120;2023-07-13T04:15:53;11.88;;;6.18;;
39680;SDS011;26327;42.550;23.120;2023-07-13T04:18:19;8.82;;;6.40;;
39680;SDS011;26327;42.550;23.120;2023-07-13T04:20:49;14.63;;;6.35;;
39680;SDS011;26327;42.550;23.120;2023-07-13T04:25:47;10.40;;;7.32;;
39680;SDS011;26327;42.550;23.120;2023-07-13T04:28:18;11.68;;;7.18;;
39680;SDS011;26327;42.550;23.120;2023-07-13T04:30:45;14.43;;;7.63;;
39680;SDS011;26327;42.550;23.120;2023-07-13T04:33:10;7.97;;;6.50;;
39680;SDS011;26327;42.550;23.120;2023-07-13T04:35:36;10.07;;;6.50;;
39680;SDS011;26327;42.550;23.120;2023-07-13T04:38:02;11.77;;;5.90;;
39680;SDS011;26327;42.550;23.120;2023-07-13T04:40:28;7.97;;;6.10;;
39680;SDS011;26327;42.550;23.120;2023-07-13T04:42:54;8.00;;;6.10;;
39680;SDS011;26327;42.550;23.120;2023-07-13T04:45:21;12.20;;;6.35;;
39680;SDS011;26327;42.550;23.120;2023-07-13T04:47:46;14.45;;;6.68;;
39680;SDS011;26327;42.550;23.120;2023-07-13T04:50:12;11.02;;;6.70;;
39680;SDS011;26327;42.550;23.120;2023-07-13T04:52:45;10.25;;;6.32;;
39680;SDS011;26327;42.550;23.120;2023-07-13T04:55:11;9.00;;;6.22;;
39680;SDS011;26327;42.550;23.120;2023-07-13T04:57:37;8.35;;;6.50;;
39680;SDS011;26327;42.550;23.120;2023-07-13T05:00:03;8.13;;;5.97;;
39680;SDS011;26327;42.550;23.120;2023-07-13T05:02:31;10.25;;;6.80;;
39680;SDS011;26327;42.550;23.120;2023-07-13T05:04:57;14.43;;;6.82;;
39680;SDS011;26327;42.550;23.120;2023-07-13T05:07:23;14.55;;;6.63;;
39680;SDS011;26327;42.550;23.120;2023-07-13T05:09:48;15.88;;;7.80;;
39680;SDS011;26327;42.550;23.120;2023-07-13T05:12:14;17.15;;;8.10;;
39680;SDS011;26327;42.550;23.120;2023-07-13T05:14:39;16.10;;;8.80;;
39680;SDS011;26327;42.550;23.120;2023-07-13T05:17:05;16.20;;;8.55;;
39680;SDS011;26327;42.550;23.120;2023-07-13T05:19:30;17.67;;;9.25;;
39680;SDS011;26327;42.550;23.120;2023-07-13T05:21:55;24.55;;;9.80;;
39680;SDS011;26327;42.550;23.120;2023-07-13T05:24:21;21.67;;;9.07;;
39680;SDS011;26327;42.550;23.120;2023-07-13T05:26:46;16.77;;;8.98;;
39680;SDS011;26327;42.550;23.120;2023-07-13T05:29:12;24.50;;;8.90;;
39680;SDS011;26327;42.550;23.120;2023-07-13T05:31:37;36.33;;;10.45;;
39680;SDS011;26327;42.550;23.120;2023-07-13T05:34:03;64.60;;;11.70;;
39680;SDS011;26327;42.550;23.120;2023-07-13T05:36:28;29.50;;;10.05;;
39680;SDS011;26327;42.550;23.120;2023-07-13T05:38:54;31.45;;;10.43;;
39680;SDS011;26327;42.550;23.120;2023-07-13T05:41:19;36.95;;;10.07;;
39680;SDS011;26327;42.550;23.120;2023-07-13T05:43:44;25.55;;;9.50;;
39680;SDS011;26327;42.550;23.120;2023-07-13T05:46:10;28.90;;;10.05;;
39680;SDS011;26327;42.550;23.120;2023-07-13T05:48:35;22.33;;;9.82;;
39680;SDS011;26327;42.550;23.120;2023-07-13T05:51:01;18.98;;;9.98;;
39680;SDS011;26327;42.550;23.120;2023-07-13T05:53:26;19.45;;;9.63;;
39680;SDS011;26327;42.550;23.120;2023-07-13T05:55:52;21.45;;;9.85;;
39680;SDS011;26327;42.550;23.120;2023-07-13T05:58:19;19.05;;;9.68;;
39680;SDS011;26327;42.550;23.120;2023-07-13T06:00:45;23.90;;;9.50;;
39680;SDS011;26327;42.550;23.120;2023-07-13T06:03:11;20.48;;;9.90;;
39680;SDS011;26327;42.550;23.120;2023-07-13T06:05:37;24.05;;;10.10;;
39680;SDS011;26327;42.550;23.120;2023-07-13T06:08:03;21.63;;;9.55;;
39680;SDS011;26327;42.550;23.120;2023-07-13T06:10:32;27.98;;;10.00;;
39680;SDS011;26327;42.550;23.120;2023-07-13T06:16:20;25.05;;;9.82;;
39680;SDS011;26327;42.550;23.120;2023-07-13T06:18:45;21.52;;;9.27;;
39680;SDS011;26327;42.550;23.120;2023-07-13T06:21:15;17.95;;;9.43;;
39680;SDS011;26327;42.550;23.120;2023-07-13T06:23:42;16.23;;;8.90;;
39680;SDS011;26327;42.550;23.120;2023-07-13T06:26:09;13.38;;;8.38;;
39680;SDS011;26327;42.550;23.120;2023-07-13T06:28:35;12.52;;;7.80;;
39680;SDS011;26327;42.550;23.120;2023-07-13T06:31:01;14.43;;;7.75;;
39680;SDS011;26327;42.550;23.120;2023-07-13T06:36:48;14.75;;;6.38;;
39680;SDS011;26327;42.550;23.120;2023-07-13T06:42:35;8.70;;;5.85;;
39680;SDS011;26327;42.550;23.120;2023-07-13T06:45:00;11.10;;;7.28;;
39680;SDS011;26327;42.550;23.120;2023-07-13T06:47:26;13.52;;;6.57;;
39680;SDS011;26327;42.550;23.120;2023-07-13T06:49:51;19.98;;;7.45;;
39680;SDS011;26327;42.550;23.120;2023-07-13T06:52:17;22.10;;;6.65;;
39680;SDS011;26327;42.550;23.120;2023-07-13T06:54:42;15.45;;;7.00;;
39680;SDS011;26327;42.550;23.120;2023-07-13T06:57:08;13.82;;;6.20;;
39680;SDS011;26327;42.550;23.120;2023-07-13T06:59:34;13.35;;;6.15;;
39680;SDS011;26327;42.550;23.120;2023-07-13T07:01:59;14.57;;;6.28;;
39680;SDS011;26327;42.550;23.120;2023-07-13T07:04:25;15.63;;;6.55;;
39680;SDS011;26327;42.550;23.120;2023-07-13T07:06:50;17.45;;;7.22;;
39680;SDS011;26327;42.550;23.120;2023-07-13T07:09:15;16.42;;;6.65;;
39680;SDS011;26327;42.550;23.120;2023-07-13T07:11:41;15.70;;;7.40;;
39680;SDS011;26327;42.550;23.120;2023-07-13T07:17:28;17.05;;;7.15;;
39680;SDS011;26327;42.550;23.120;2023-07-13T07:19:54;18.58;;;6.35;;
39680;SDS011;26327;42.550;23.120;2023-07-13T07:22:20;12.90;;;6.38;;
39680;SDS011;26327;42.550;23.120;2023-07-13T07:24:46;13.95;;;6.55;;
39680;SDS011;26327;42.550;23.120;2023-07-13T07:27:11;12.45;;;6.70;;
39680;SDS011;26327;42.550;23.120;2023-07-13T07:29:37;19.05;;;6.57;;
39680;SDS011;26327;42.550;23.120;2023-07-13T07:32:02;19.83;;;7.25;;
39680;SDS011;26327;42.550;23.120;2023-07-13T07:34:28;16.15;;;6.72;;
39680;SDS011;26327;42.550;23.120;2023-07-13T07:36:53;15.73;;;6.47;;
39680;SDS011;26327;42.550;23.120;2023-07-13T07:39:19;11.25;;;5.95;;
39680;SDS011;26327;42.550;23.120;2023-07-13T07:45:12;14.82;;;6.45;;
39680;SDS011;26327;42.550;23.120;2023-07-13T07:47:39;13.63;;;7.00;;
39680;SDS011;26327;42.550;23.120;2023-07-13T07:50:04;15.35;;;6.95;;
39680;SDS011;26327;42.550;23.120;2023-07-13T07:55:52;10.43;;;5.68;;
39680;SDS011;26327;42.550;23.120;2023-07-13T07:58:17;11.80;;;6.18;;
39680;SDS011;26327;42.550;23.120;2023-07-13T08:10:39;9.63;;;5.78;;
39680;SDS011;26327;42.550;23.120;2023-07-13T08:16:26;10.75;;;5.65;;
39680;SDS011;26327;42.550;23.120;2023-07-13T08:18:52;13.35;;;5.63;;
39680;SDS011;26327;42.550;23.120;2023-07-13T08:21:25;13.25;;;5.80;;
39680;SDS011;26327;42.550;23.120;2023-07-13T08:23:51;9.57;;;5.85;;
39680;SDS011;26327;42.550;23.120;2023-07-13T08:26:16;11.80;;;5.63;;
39680;SDS011;26327;42.550;23.120;2023-07-13T08:32:04;9.50;;;5.53;;
39680;SDS011;26327;42.550;23.120;2023-07-13T08:37:53;12.90;;;6.22;;
39680;SDS011;26327;42.550;23.120;2023-07-13T08:40:19;11.43;;;5.55;;
39680;SDS011;26327;42.550;23.120;2023-07-13T08:42:54;18.13;;;6.20;;
39680;SDS011;26327;42.550;23.120;2023-07-13T08:47:52;12.07;;;5.73;;
39680;SDS011;26327;42.550;23.120;2023-07-13T08:50:21;10.27;;;6.22;;
39680;SDS011;26327;42.550;23.120;2023-07-13T08:52:59;10.60;;;6.18;;
39680;SDS011;26327;42.550;23.120;2023-07-13T08:55:30;12.05;;;5.60;;
39680;SDS011;26327;42.550;23.120;2023-07-13T08:58:09;13.63;;;5.97;;
39680;SDS011;26327;42.550;23.120;2023-07-13T09:03:35;14.02;;;6.90;;
39680;SDS011;26327;42.550;23.120;2023-07-13T09:06:06;25.85;;;7.38;;
39680;SDS011;26327;42.550;23.120;2023-07-13T09:16:44;17.02;;;6.78;;
39680;SDS011;26327;42.550;23.120;2023-07-13T09:19:15;12.67;;;5.97;;
39680;SDS011;26327;42.550;23.120;2023-07-13T09:21:47;8.02;;;6.05;;
39680;SDS011;26327;42.550;23.120;2023-07-13T09:24:22;9.45;;;5.25;;
39680;SDS011;26327;42.550;23.120;2023-07-13T09:26:55;10.15;;;6.05;;
39680;SDS011;26327;42.550;23.120;2023-07-13T09:29:29;10.15;;;6.15;;
39680;SDS011;26327;42.550;23.120;2023-07-13T09:32:01;10.55;;;5.40;;
39680;SDS011;26327;42.550;23.120;2023-07-13T09:34:29;9.23;;;5.90;;
39680;SDS011;26327;42.550;23.120;2023-07-13T09:36:57;10.45;;;6.30;;
39680;SDS011;26327;42.550;23.120;2023-07-13T09:42:44;8.63;;;6.20;;
39680;SDS011;26327;42.550;23.120;2023-07-13T09:45:10;7.38;;;5.47;;
39680;SDS011;26327;42.550;23.120;2023-07-13T09:47:53;9.52;;;5.20;;
39680;SDS011;26327;42.550;23.120;2023-07-13T09:53:46;11.60;;;5.90;;
39680;SDS011;26327;42.550;23.120;2023-07-13T09:56:21;10.13;;;5.60;;
39680;SDS011;26327;42.550;23.120;2023-07-13T09:58:54;9.18;;;5.40;;
39680;SDS011;26327;42.550;23.120;2023-07-13T10:01:36;9.27;;;5.40;;
39680;SDS011;26327;42.550;23.120;2023-07-13T10:04:12;9.75;;;5.93;;
39680;SDS011;26327;42.550;23.120;2023-07-13T10:06:39;6.38;;;4.80;;
39680;SDS011;26327;42.550;23.120;2023-07-13T10:09:08;8.15;;;4.70;;
39680;SDS011;26327;42.550;23.120;2023-07-13T10:14:40;8.38;;;5.07;;
39680;SDS011;26327;42.550;23.120;2023-07-13T10:17:08;6.15;;;5.07;;
39680;SDS011;26327;42.550;23.120;2023-07-13T10:19:37;7.45;;;5.18;;
39680;SDS011;26327;42.550;23.120;2023-07-13T10:25:03;7.88;;;5.70;;
39680;SDS011;26327;42.550;23.120;2023-07-13T10:37:24;7.82;;;4.85;;
39680;SDS011;26327;42.550;23.120;2023-07-13T10:39:54;10.95;;;5.50;;
39680;SDS011;26327;42.550;23.120;2023-07-13T10:42:31;8.98;;;5.38;;
39680;SDS011;26327;42.550;23.120;2023-07-13T10:45:00;10.05;;;6.05;;
39680;SDS011;26327;42.550;23.120;2023-07-13T10:47:26;10.18;;;5.07;;
39680;SDS011;26327;42.550;23.120;2023-07-13T10:49:54;9.18;;;5.15;;
39680;SDS011;26327;42.550;23.120;2023-07-13T10:58:40;10.30;;;5.20;;
39680;SDS011;26327;42.550;23.120;2023-07-13T11:01:09;8.75;;;4.72;;
39680;SDS011;26327;42.550;23.120;2023-07-13T11:04:22;6.22;;;4.90;;
39680;SDS011;26327;42.550;23.120;2023-07-13T11:09:24;9.77;;;5.15;;
39680;SDS011;26327;42.550;23.120;2023-07-13T11:11:43;7.03;;;4.80;;
39680;SDS011;26327;42.550;23.120;2023-07-13T11:22:50;7.35;;;4.57;;
39680;SDS011;26327;42.550;23.120;2023-07-13T11:27:51;7.00;;;4.90;;
39680;SDS011;26327;42.550;23.120;2023-07-13T11:38:22;8.18;;;4.72;;
39680;SDS011;26327;42.550;23.120;2023-07-13T11:44:16;7.97;;;4.78;;
39680;SDS011;26327;42.550;23.120;2023-07-13T11:46:53;8.77;;;4.78;;
39680;SDS011;26327;42.550;23.120;2023-07-13T11:49:21;5.90;;;4.45;;
39680;SDS011;26327;42.550;23.120;2023-07-13T11:58:32;9.20;;;4.72;;
39680;SDS011;26327;42.550;23.120;2023-07-13T12:00:59;6.80;;;4.65;;
39680;SDS011;26327;42.550;23.120;2023-07-13T12:03:29;7.18;;;4.57;;
39680;SDS011;26327;42.550;23.120;2023-07-13T12:06:03;6.95;;;4.50;;
39680;SDS011;26327;42.550;23.120;2023-07-13T12:08:39;7.82;;;4.93;;
39680;SDS011;26327;42.550;23.120;2023-07-13T12:14:27;10.60;;;4.20;;
39680;SDS011;26327;42.550;23.120;2023-07-13T12:16:52;10.02;;;4.95;;
39680;SDS011;26327;42.550;23.120;2023-07-13T12:19:27;9.00;;;4.97;;
39680;SDS011;26327;42.550;23.120;2023-07-13T12:21:57;11.05;;;4.95;;
39680;SDS011;26327;42.550;23.120;2023-07-13T12:24:26;10.40;;;4.90;;
39680;SDS011;26327;42.550;23.120;2023-07-13T12:27:02;7.60;;;4.53;;
39680;SDS011;26327;42.550;23.120;2023-07-13T12:29:29;8.57;;;4.72;;
39680;SDS011;26327;42.550;23.120;2023-07-13T12:31:56;11.82;;;4.22;;
39680;SDS011;26327;42.550;23.120;2023-07-13T12:34:22;11.13;;;5.28;;
39680;SDS011;26327;42.550;23.120;2023-07-13T12:40:18;8.88;;;4.28;;
39680;SDS011;26327;42.550;23.120;2023-07-13T12:42:47;10.07;;;4.45;;
39680;SDS011;26327;42.550;23.120;2023-07-13T12:45:24;9.02;;;4.47;;
39680;SDS011;26327;42.550;23.120;2023-07-13T12:47:58;8.25;;;4.78;;
39680;SDS011;26327;42.550;23.120;2023-07-13T12:50:39;10.90;;;4.67;;
39680;SDS011;26327;42.550;23.120;2023-07-13T12:53:11;9.88;;;4.50;;
39680;SDS011;26327;42.550;23.120;2023-07-13T12:55:49;8.15;;;4.90;;
39680;SDS011;26327;42.550;23.120;2023-07-13T13:01:13;12.00;;;5.00;;
39680;SDS011;26327;42.550;23.120;2023-07-13T13:03:40;9.80;;;4.65;;
39680;SDS011;26327;42.550;23.120;2023-07-13T13:08:48;8.20;;;4.40;;
39680;SDS011;26327;42.550;23.120;2023-07-13T13:11:17;8.98;;;4.63;;
39680;SDS011;26327;42.550;23.120;2023-07-13T13:17:04;11.88;;;5.07;;
39680;SDS011;26327;42.550;23.120;2023-07-13T13:19:52;11.88;;;4.65;;
39680;SDS011;26327;42.550;23.120;2023-07-13T13:22:19;9.30;;;4.47;;
39680;SDS011;26327;42.550;23.120;2023-07-13T13:24:45;9.75;;;4.80;;
39680;SDS011;26327;42.550;23.120;2023-07-13T13:27:17;7.20;;;4.28;;
39680;SDS011;26327;42.550;23.120;2023-07-13T13:29:44;12.43;;;5.20;;
39680;SDS011;26327;42.550;23.120;2023-07-13T13:32:13;9.93;;;4.32;;
39680;SDS011;26327;42.550;23.120;2023-07-13T13:34:40;8.90;;;4.78;;
39680;SDS011;26327;42.550;23.120;2023-07-13T13:37:22;14.55;;;5.00;;
39680;SDS011;26327;42.550;23.120;2023-07-13T13:43:22;8.95;;;4.95;;
39680;SDS011;26327;42.550;23.120;2023-07-13T13:45:52;9.77;;;5.15;;
39680;SDS011;26327;42.550;23.120;2023-07-13T13:51:22;10.43;;;4.95;;
39680;SDS011;26327;42.550;23.120;2023-07-13T13:53:49;8.73;;;4.72;;
39680;SDS011;26327;42.550;23.120;2023-07-13T13:56:15;8.70;;;5.13;;
39680;SDS011;26327;42.550;23.120;2023-07-13T13:58:43;7.13;;;4.88;;
39680;SDS011;26327;42.550;23.120;2023-07-13T14:01:27;10.35;;;5.28;;
39680;SDS011;26327;42.550;23.120;2023-07-13T14:03:54;8.43;;;4.50;;
39680;SDS011;26327;42.550;23.120;2023-07-13T14:09:41;6.35;;;4.03;;
39680;SDS011;26327;42.550;23.120;2023-07-13T14:12:08;8.10;;;4.55;;
39680;SDS011;26327;42.550;23.120;2023-07-13T14:17:59;12.35;;;4.50;;
39680;SDS011;26327;42.550;23.120;2023-07-13T14:20:24;9.68;;;5.18;;
39680;SDS011;26327;42.550;23.120;2023-07-13T14:22:51;12.32;;;4.65;;
39680;SDS011;26327;42.550;23.120;2023-07-13T14:25:18;13.25;;;5.47;;
39680;SDS011;26327;42.550;23.120;2023-07-13T14:31:06;10.65;;;4.47;;
39680;SDS011;26327;42.550;23.120;2023-07-13T14:36:53;8.93;;;4.45;;
39680;SDS011;26327;42.550;23.120;2023-07-13T14:39:23;7.68;;;4.10;;
39680;SDS011;26327;42.550;23.120;2023-07-13T14:45:14;11.57;;;4.50;;
39680;SDS011;26327;42.550;23.120;2023-07-13T14:47:41;7.75;;;4.47;;
39680;SDS011;26327;42.550;23.120;2023-07-13T14:53:30;8.73;;;4.70;;
39680;SDS011;26327;42.550;23.120;2023-07-13T14:55:55;10.00;;;4.90;;
39680;SDS011;26327;42.550;23.120;2023-07-13T14:58:21;8.90;;;4.65;;
39680;SDS011;26327;42.550;23.120;2023-07-13T15:00:46;11.52;;;4.70;;
39680;SDS011;26327;42.550;23.120;2023-07-13T15:03:17;9.98;;;4.72;;
39680;SDS011;26327;42.550;23.120;2023-07-13T15:05:49;12.68;;;4.60;;
39680;SDS011;26327;42.550;23.120;2023-07-13T15:08:15;7.93;;;4.65;;
39680;SDS011;26327;42.550;23.120;2023-07-13T15:10:41;7.57;;;4.35;;
39680;SDS011;26327;42.550;23.120;2023-07-13T15:13:14;10.70;;;5.18;;
39680;SDS011;26327;42.550;23.120;2023-07-13T15:15:42;9.25;;;4.43;;
39680;SDS011;26327;42.550;23.120;2023-07-13T15:18:18;9.02;;;4.95;;
39680;SDS011;26327;42.550;23.120;2023-07-13T15:20:46;7.75;;;4.47;;
39680;SDS011;26327;42.550;23.120;2023-07-13T15:29:35;9.65;;;4.63;;
39680;SDS011;26327;42.550;23.120;2023-07-13T15:38:37;9.55;;;4.82;;
39680;SDS011;26327;42.550;23.120;2023-07-13T15:41:09;7.28;;;4.35;;
39680;SDS011;26327;42.550;23.120;2023-07-13T15:43:49;11.50;;;4.65;;
39680;SDS011;26327;42.550;23.120;2023-07-13T15:46:17;7.75;;;4.43;;
39680;SDS011;26327;42.550;23.120;2023-07-13T15:52:05;7.20;;;4.70;;
39680;SDS011;26327;42.550;23.120;2023-07-13T15:54:47;11.13;;;4.65;;
39680;SDS011;26327;42.550;23.120;2023-07-13T15:57:22;10.07;;;4.55;;
39680;SDS011;26327;42.550;23.120;2023-07-13T15:59:47;11.57;;;4.85;;
39680;SDS011;26327;42.550;23.120;2023-07-13T16:02:13;8.48;;;4.63;;
39680;SDS011;26327;42.550;23.120;2023-07-13T16:04:45;8.23;;;5.47;;
39680;SDS011;26327;42.550;23.120;2023-07-13T16:07:11;10.32;;;4.80;;
39680;SDS011;26327;42.550;23.120;2023-07-13T16:09:38;15.50;;;4.80;;
39680;SDS011;26327;42.550;23.120;2023-07-13T16:12:09;9.60;;;4.65;;
39680;SDS011;26327;42.550;23.120;2023-07-13T16:14:37;8.68;;;4.80;;
39680;SDS011;26327;42.550;23.120;2023-07-13T16:17:04;9.13;;;5.13;;
39680;SDS011;26327;42.550;23.120;2023-07-13T16:19:31;8.95;;;4.05;;
39680;SDS011;26327;42.550;23.120;2023-07-13T16:21:58;7.70;;;4.38;;
39680;SDS011;26327;42.550;23.120;2023-07-13T16:24:25;11.95;;;5.18;;
39680;SDS011;26327;42.550;23.120;2023-07-13T16:26:51;13.60;;;5.07;;
39680;SDS011;26327;42.550;23.120;2023-07-13T16:34:47;12.23;;;5.43;;
39680;SDS011;26327;42.550;23.120;2023-07-13T16:40:35;10.13;;;5.00;;
39680;SDS011;26327;42.550;23.120;2023-07-13T16:46:22;9.00;;;5.20;;
39680;SDS011;26327;42.550;23.120;2023-07-13T16:48:49;8.30;;;5.13;;
39680;SDS011;26327;42.550;23.120;2023-07-13T16:51:21;9.13;;;4.75;;
39680;SDS011;26327;42.550;23.120;2023-07-13T16:53:46;12.15;;;5.60;;
39680;SDS011;26327;42.550;23.120;2023-07-13T16:59:40;16.70;;;6.68;;
39680;SDS011;26327;42.550;23.120;2023-07-13T17:02:17;13.48;;;5.55;;
39680;SDS011;26327;42.550;23.120;2023-07-13T17:04:59;12.40;;;5.32;;
39680;SDS011;26327;42.550;23.120;2023-07-13T17:07:25;13.27;;;6.03;;
39680;SDS011;26327;42.550;23.120;2023-07-13T17:16:24;13.50;;;6.97;;
39680;SDS011;26327;42.550;23.120;2023-07-13T17:22:12;20.88;;;8.80;;
39680;SDS011;26327;42.550;23.120;2023-07-13T17:24:42;14.05;;;6.78;;
39680;SDS011;26327;42.550;23.120;2023-07-13T17:27:09;10.35;;;5.47;;
39680;SDS011;26327;42.550;23.120;2023-07-13T17:29:35;11.25;;;4.88;;
39680;SDS011;26327;42.550;23.120;2023-07-13T17:32:02;12.88;;;4.70;;
39680;SDS011;26327;42.550;23.120;2023-07-13T17:34:30;12.87;;;5.10;;
39680;SDS011;26327;42.550;23.120;2023-07-13T17:36:56;12.77;;;5.30;;
39680;SDS011;26327;42.550;23.120;2023-07-13T17:39:24;10.05;;;5.25;;
39680;SDS011;26327;42.550;23.120;2023-07-13T17:41:49;10.25;;;5.15;;
39680;SDS011;26327;42.550;23.120;2023-07-13T17:44:16;9.65;;;5.15;;
39680;SDS011;26327;42.550;23.120;2023-07-13T17:46:41;15.65;;;5.78;;
39680;SDS011;26327;42.550;23.120;2023-07-13T17:49:15;10.25;;;5.32;;
39680;SDS011;26327;42.550;23.120;2023-07-13T17:51:45;11.40;;;5.53;;
39680;SDS011;26327;42.550;23.120;2023-07-13T17:54:12;10.98;;;5.57;;
39680;SDS011;26327;42.550;23.120;2023-07-13T17:56:38;9.77;;;5.68;;
39680;SDS011;26327;42.550;23.120;2023-07-13T17:59:04;17.90;;;6.53;;
39680;SDS011;26327;42.550;23.120;2023-07-13T18:01:29;12.75;;;5.25;;
39680;SDS011;26327;42.550;23.120;2023-07-13T18:03:58;12.15;;;5.53;;